createdAt,value
2022-12-31T00:01:26.693Z,4.37
2022-12-31T00:03:53.790Z,4.28
2022-12-31T00:06:26.472Z,4.35
2022-12-31T00:08:55.864Z,4.31
2022-12-31T00:11:24.265Z,4.29
2022-12-31T00:13:51.599Z,4.27
2022-12-31T00:16:23.101Z,4.17
2022-12-31T00:18:52.067Z,4.20
2022-12-31T00:21:19.362Z,4.15
2022-12-31T00:23:46.037Z,4.10
2022-12-31T00:26:16.128Z,4.11
2022-12-31T00:28:43.348Z,4.02
2022-12-31T00:31:12.897Z,4.03
2022-12-31T00:33:40.078Z,4.01
2022-12-31T00:36:15.597Z,3.91
2022-12-31T00:38:44.902Z,3.78
2022-12-31T00:41:12.001Z,3.82
2022-12-31T00:43:38.858Z,3.86
2022-12-31T00:46:06.621Z,3.88
2022-12-31T00:48:34.393Z,3.90
2022-12-31T00:51:02.024Z,3.90
2022-12-31T00:53:29.338Z,3.91
2022-12-31T00:56:11.373Z,3.98
2022-12-31T00:58:38.047Z,3.98
2022-12-31T01:01:20.617Z,3.96
2022-12-31T01:03:47.711Z,4.07
2022-12-31T01:06:14.756Z,4.18
2022-12-31T01:08:41.518Z,4.15
2022-12-31T01:11:20.544Z,4.20
2022-12-31T01:13:54.490Z,4.18
2022-12-31T01:16:33.983Z,4.20
2022-12-31T01:19:05.673Z,4.22
2022-12-31T01:21:33.136Z,4.16
2022-12-31T01:23:59.867Z,4.19
2022-12-31T01:26:27.486Z,4.16
2022-12-31T01:28:54.327Z,4.17
2022-12-31T01:31:22.767Z,4.18
2022-12-31T01:33:50.355Z,4.28
2022-12-31T01:36:25.270Z,4.20
2022-12-31T01:38:53.899Z,4.24
2022-12-31T01:41:26.731Z,4.23
2022-12-31T01:43:56.571Z,4.22
2022-12-31T01:46:42.774Z,4.18
2022-12-31T01:49:22.603Z,4.16
2022-12-31T01:51:53.981Z,4.18
2022-12-31T01:54:22.646Z,4.18
2022-12-31T01:56:52.134Z,4.16
2022-12-31T01:59:19.654Z,4.15
2022-12-31T02:01:48.503Z,4.17
2022-12-31T02:04:15.751Z,4.20
2022-12-31T02:06:52.826Z,4.49
2022-12-31T02:09:20.051Z,4.46
2022-12-31T02:11:46.605Z,4.40
2022-12-31T02:14:17.029Z,4.40
2022-12-31T02:16:55.893Z,4.47
2022-12-31T02:19:43.911Z,4.55
2022-12-31T02:22:28.618Z,4.64
2022-12-31T02:25:23.185Z,4.58
2022-12-31T02:28:01.584Z,4.54
2022-12-31T02:30:32.475Z,4.52
2022-12-31T02:33:20.233Z,4.42
2022-12-31T02:35:52.037Z,4.41
2022-12-31T02:38:43.661Z,4.38
2022-12-31T02:41:33.612Z,4.36
2022-12-31T02:44:00.134Z,4.43
2022-12-31T02:46:54.234Z,4.46
2022-12-31T02:49:28.301Z,4.41
2022-12-31T02:52:07.945Z,4.48
2022-12-31T02:54:49.049Z,4.43
2022-12-31T02:57:34.208Z,4.40
2022-12-31T03:00:25.612Z,4.40
2022-12-31T03:02:54.152Z,4.44
2022-12-31T03:05:24.570Z,4.47
2022-12-31T03:07:51.670Z,4.51
2022-12-31T03:10:18.278Z,4.51
2022-12-31T03:12:48.346Z,4.56
2022-12-31T03:15:27.039Z,4.55
2022-12-31T03:18:02.067Z,4.55
2022-12-31T03:20:49.516Z,4.55
2022-12-31T03:23:20.949Z,4.65
2022-12-31T03:25:47.465Z,4.74
2022-12-31T03:28:17.595Z,4.79
2022-12-31T03:30:47.919Z,4.87
2022-12-31T03:33:14.746Z,4.89
2022-12-31T03:35:43.945Z,4.89
2022-12-31T03:38:10.859Z,4.96
2022-12-31T03:40:46.197Z,4.95
2022-12-31T03:43:12.899Z,4.98
2022-12-31T03:45:39.816Z,5.01
2022-12-31T03:48:08.220Z,5.03
2022-12-31T03:50:35.479Z,5.06
2022-12-31T03:53:02.503Z,5.07
2022-12-31T03:55:29.141Z,5.10
2022-12-31T03:57:55.778Z,5.11
2022-12-31T04:00:22.990Z,5.16
2022-12-31T04:02:50.769Z,5.22
2022-12-31T04:05:18.339Z,5.24
2022-12-31T04:07:45.394Z,5.27
2022-12-31T04:10:15.403Z,5.28
2022-12-31T04:12:42.828Z,5.32
2022-12-31T04:15:11.712Z,5.36
2022-12-31T04:17:38.647Z,5.40
2022-12-31T04:20:05.647Z,5.46
2022-12-31T04:22:34.900Z,5.52
2022-12-31T04:25:01.857Z,5.52
2022-12-31T04:27:28.338Z,5.60
2022-12-31T04:29:54.847Z,5.61
2022-12-31T04:32:21.894Z,5.68
2022-12-31T04:34:48.368Z,5.77
2022-12-31T04:37:14.905Z,5.78
2022-12-31T04:39:41.470Z,5.82
2022-12-31T04:42:08.239Z,5.83
2022-12-31T04:44:35.185Z,5.83
2022-12-31T04:47:02.131Z,5.87
2022-12-31T04:49:28.697Z,5.91
2022-12-31T04:51:55.195Z,5.89
2022-12-31T04:54:21.707Z,5.88
2022-12-31T04:56:48.309Z,5.88
2022-12-31T04:59:14.793Z,5.89
2022-12-31T05:01:41.786Z,5.95
2022-12-31T05:04:08.382Z,5.97
2022-12-31T05:06:34.950Z,6.02
2022-12-31T05:09:01.606Z,6.04
2022-12-31T05:11:28.108Z,6.10
2022-12-31T05:13:54.633Z,6.12
2022-12-31T05:16:21.639Z,6.14
2022-12-31T05:18:48.178Z,6.14
2022-12-31T05:21:21.258Z,6.19
2022-12-31T05:23:48.914Z,6.20
2022-12-31T05:26:15.629Z,6.23
2022-12-31T05:28:42.199Z,6.26
2022-12-31T05:31:08.781Z,6.26
2022-12-31T05:33:35.574Z,6.31
2022-12-31T05:36:02.212Z,6.34
2022-12-31T05:38:29.065Z,6.37
2022-12-31T05:41:06.544Z,6.36
2022-12-31T05:43:36.225Z,6.42
2022-12-31T05:46:04.649Z,6.47
2022-12-31T05:48:32.050Z,6.47
2022-12-31T05:50:58.880Z,6.47
2022-12-31T05:53:25.629Z,6.47
2022-12-31T05:55:52.161Z,6.57
2022-12-31T05:58:18.870Z,6.53
2022-12-31T06:00:46.161Z,6.60
2022-12-31T06:03:12.843Z,6.61
2022-12-31T06:05:41.510Z,6.65
2022-12-31T06:08:08.274Z,6.66
2022-12-31T06:10:34.785Z,6.65
2022-12-31T06:13:01.313Z,6.69
2022-12-31T06:15:28.161Z,6.66
2022-12-31T06:17:54.921Z,6.69
2022-12-31T06:20:21.423Z,6.75
2022-12-31T06:22:48.148Z,6.75
2022-12-31T06:25:15.116Z,6.77
2022-12-31T06:27:41.607Z,6.85
2022-12-31T06:30:08.924Z,6.82
2022-12-31T06:32:35.738Z,6.81
2022-12-31T06:35:02.392Z,6.82
2022-12-31T06:37:28.924Z,6.90
2022-12-31T06:39:55.686Z,6.94
2022-12-31T06:42:22.172Z,7.00
2022-12-31T06:44:48.693Z,7.03
2022-12-31T06:47:15.333Z,7.05
2022-12-31T06:49:41.912Z,7.07
2022-12-31T06:52:08.486Z,7.07
2022-12-31T06:54:35.397Z,7.13
2022-12-31T06:57:02.191Z,7.13
2022-12-31T06:59:29.752Z,7.17
2022-12-31T07:02:11.441Z,7.17
2022-12-31T07:05:02.837Z,7.18
2022-12-31T07:08:06.043Z,7.16
2022-12-31T07:10:44.169Z,7.17
2022-12-31T07:13:42.499Z,7.23
2022-12-31T07:16:34.754Z,7.26
2022-12-31T07:19:14.418Z,7.29
2022-12-31T07:21:43.393Z,7.32
2022-12-31T07:24:11.393Z,7.36
2022-12-31T07:26:52.592Z,7.35
2022-12-31T07:29:44.217Z,7.37
2022-12-31T07:32:55.037Z,7.37
2022-12-31T07:35:41.016Z,7.34
2022-12-31T07:38:10.227Z,7.40
2022-12-31T07:41:07.465Z,7.41
2022-12-31T07:44:17.805Z,7.44
2022-12-31T07:47:05.526Z,7.48
2022-12-31T07:49:33.986Z,7.48
2022-12-31T07:52:00.817Z,7.51
2022-12-31T07:54:27.330Z,7.52
2022-12-31T07:56:54.028Z,7.60
2022-12-31T07:59:29.881Z,7.63
2022-12-31T08:02:00.280Z,7.68
2022-12-31T08:04:41.945Z,7.71
2022-12-31T08:07:33.639Z,7.77
2022-12-31T08:10:28.615Z,7.77
2022-12-31T08:13:01.286Z,7.83
2022-12-31T08:15:30.587Z,7.81
2022-12-31T08:17:57.767Z,7.89
2022-12-31T08:20:25.863Z,7.90
2022-12-31T08:23:19.847Z,7.90
2022-12-31T08:26:09.713Z,7.90
2022-12-31T08:28:36.307Z,7.93
2022-12-31T08:31:14.557Z,7.94
2022-12-31T08:34:05.990Z,8.01
2022-12-31T08:36:54.427Z,8.05
2022-12-31T08:39:36.085Z,8.07
2022-12-31T08:42:09.486Z,8.10
2022-12-31T08:44:44.178Z,8.11
2022-12-31T08:47:24.104Z,8.16
2022-12-31T08:49:50.888Z,8.24
2022-12-31T08:52:23.917Z,8.29
2022-12-31T08:54:50.871Z,8.36
2022-12-31T08:57:42.273Z,8.43
2022-12-31T09:00:15.150Z,8.57
2022-12-31T09:03:09.759Z,8.64
2022-12-31T09:05:54.313Z,8.69
2022-12-31T09:08:47.040Z,8.74
2022-12-31T09:11:23.247Z,8.75
2022-12-31T09:14:12.896Z,8.71
2022-12-31T09:16:39.393Z,8.79
2022-12-31T09:19:05.923Z,8.83
2022-12-31T09:21:33.591Z,8.87
2022-12-31T09:24:05.935Z,8.87
2022-12-31T09:26:38.281Z,8.90
2022-12-31T09:29:44.423Z,8.94
2022-12-31T09:32:10.928Z,8.96
2022-12-31T09:34:46.998Z,9.05
2022-12-31T09:37:36.463Z,9.16
2022-12-31T09:40:40.023Z,9.26
2022-12-31T09:43:34.661Z,9.33
2022-12-31T09:46:07.262Z,9.41
2022-12-31T09:49:11.233Z,9.43
2022-12-31T09:51:43.880Z,9.45
2022-12-31T09:54:20.233Z,9.45
2022-12-31T09:57:00.734Z,9.48
2022-12-31T09:59:40.413Z,9.56
2022-12-31T10:02:30.526Z,9.64
2022-12-31T10:05:22.895Z,9.65
2022-12-31T10:08:22.053Z,9.67
2022-12-31T10:10:59.482Z,9.80
2022-12-31T10:13:49.238Z,9.83
2022-12-31T10:16:31.866Z,9.86
2022-12-31T10:19:29.099Z,9.86
2022-12-31T10:22:23.501Z,9.95
2022-12-31T10:25:06.304Z,10.08
2022-12-31T10:27:48.822Z,10.10
2022-12-31T10:30:18.074Z,10.14
2022-12-31T10:33:15.793Z,10.12
2022-12-31T10:35:44.032Z,10.16
2022-12-31T10:38:18.009Z,10.15
2022-12-31T10:40:44.478Z,10.18
2022-12-31T10:43:58.340Z,10.21
2022-12-31T10:46:56.024Z,10.34
2022-12-31T10:49:51.656Z,10.43
2022-12-31T10:52:45.995Z,10.45
2022-12-31T10:55:31.501Z,10.48
2022-12-31T10:58:35.359Z,10.61
2022-12-31T11:01:17.579Z,10.69
2022-12-31T11:03:56.306Z,10.72
2022-12-31T11:06:53.110Z,10.71
2022-12-31T11:09:41.305Z,10.73
2022-12-31T11:12:23.941Z,10.83
2022-12-31T11:15:02.643Z,10.94
2022-12-31T11:17:52.873Z,10.94
2022-12-31T11:21:00.283Z,10.88
2022-12-31T11:24:05.306Z,10.97
2022-12-31T11:26:47.277Z,10.92
2022-12-31T11:29:39.124Z,10.84
2022-12-31T11:32:20.363Z,10.84
2022-12-31T11:35:18.118Z,10.83
2022-12-31T11:37:48.754Z,10.82
2022-12-31T11:40:30.889Z,10.97
2022-12-31T11:43:41.833Z,11.12
2022-12-31T11:46:34.094Z,11.07
2022-12-31T11:49:06.647Z,11.05
2022-12-31T11:52:06.346Z,11.01
2022-12-31T11:54:52.325Z,11.05
2022-12-31T11:57:38.705Z,11.11
2022-12-31T12:00:23.166Z,11.18
2022-12-31T12:02:55.330Z,11.17
2022-12-31T12:05:24.344Z,11.20
2022-12-31T12:07:51.973Z,11.23
2022-12-31T12:10:42.175Z,11.20
2022-12-31T12:13:17.453Z,11.32
2022-12-31T12:15:51.079Z,11.38
2022-12-31T12:18:25.249Z,11.44
2022-12-31T12:20:51.834Z,11.46
2022-12-31T12:23:24.639Z,11.50
2022-12-31T12:25:51.756Z,11.44
2022-12-31T12:28:19.541Z,11.43
2022-12-31T12:31:04.268Z,11.35
2022-12-31T12:33:41.757Z,11.24
2022-12-31T12:36:10.907Z,11.18
2022-12-31T12:38:38.824Z,11.10
2022-12-31T12:41:10.477Z,11.03
2022-12-31T12:43:38.368Z,10.93
2022-12-31T12:46:20.495Z,10.96
2022-12-31T12:48:49.457Z,10.95
2022-12-31T12:51:44.827Z,10.95
2022-12-31T12:54:59.101Z,10.99
2022-12-31T12:57:33.381Z,10.94
2022-12-31T13:00:22.933Z,10.93
2022-12-31T13:03:20.455Z,10.96
2022-12-31T13:06:17.747Z,10.96
2022-12-31T13:09:03.203Z,11.02
2022-12-31T13:11:37.223Z,11.07
2022-12-31T13:14:13.503Z,11.06
2022-12-31T13:16:45.430Z,11.10
2022-12-31T13:19:18.611Z,11.12
2022-12-31T13:21:49.059Z,11.17
2022-12-31T13:24:18.389Z,11.17
2022-12-31T13:26:52.002Z,11.16
2022-12-31T13:29:23.289Z,11.18
2022-12-31T13:31:51.621Z,11.21
2022-12-31T13:34:25.881Z,11.19
2022-12-31T13:36:54.601Z,11.19
2022-12-31T13:39:27.286Z,11.15
2022-12-31T13:42:05.384Z,11.21
2022-12-31T13:44:41.954Z,11.22
2022-12-31T13:47:17.522Z,11.23
2022-12-31T13:49:48.394Z,11.26
2022-12-31T13:52:39.934Z,11.27
2022-12-31T13:55:12.748Z,11.23
2022-12-31T13:57:39.232Z,11.29
2022-12-31T14:00:14.526Z,11.32
2022-12-31T14:02:47.976Z,11.26
2022-12-31T14:05:22.826Z,11.29
2022-12-31T14:07:59.311Z,11.32
2022-12-31T14:10:46.334Z,11.29
2022-12-31T14:13:50.757Z,11.30
2022-12-31T14:16:46.497Z,11.28
2022-12-31T14:19:41.590Z,11.35
2022-12-31T14:22:33.890Z,11.37
2022-12-31T14:25:02.783Z,11.35
2022-12-31T14:27:40.499Z,11.34
2022-12-31T14:30:18.063Z,11.38
2022-12-31T14:33:21.734Z,11.44
2022-12-31T14:36:13.159Z,11.52
2022-12-31T14:39:17.208Z,11.50
2022-12-31T14:42:01.608Z,11.49
2022-12-31T14:44:58.128Z,11.58
2022-12-31T14:47:40.960Z,11.62
2022-12-31T14:50:10.422Z,11.63
2022-12-31T14:52:51.401Z,11.63
2022-12-31T14:55:18.288Z,11.64
2022-12-31T14:58:25.818Z,11.70
2022-12-31T15:00:35.154Z,11.70
2022-12-31T15:03:06.055Z,11.67
2022-12-31T15:05:35.563Z,11.78
2022-12-31T15:08:24.462Z,11.77
2022-12-31T15:10:57.065Z,11.74
2022-12-31T15:13:35.565Z,11.77
2022-12-31T15:16:24.490Z,11.86
2022-12-31T15:19:20.316Z,11.83
2022-12-31T15:22:25.609Z,11.80
2022-12-31T15:24:53.652Z,11.87
2022-12-31T15:27:38.347Z,11.88
2022-12-31T15:30:09.405Z,11.88
2022-12-31T15:32:40.399Z,11.93
2022-12-31T15:35:22.511Z,11.91
2022-12-31T15:38:17.842Z,11.94
2022-12-31T15:40:50.157Z,11.95
2022-12-31T15:43:40.220Z,11.99
2022-12-31T15:46:23.264Z,12.02
2022-12-31T15:49:01.935Z,12.12
2022-12-31T15:51:35.588Z,12.12
2022-12-31T15:54:04.416Z,12.08
2022-12-31T15:56:39.605Z,12.12
2022-12-31T15:59:13.076Z,12.15
2022-12-31T16:01:43.044Z,12.16
2022-12-31T16:04:29.889Z,12.11
2022-12-31T16:07:02.608Z,12.17
2022-12-31T16:09:31.582Z,12.20
2022-12-31T16:11:59.919Z,12.23
2022-12-31T16:14:40.521Z,12.20
2022-12-31T16:17:07.555Z,12.18
2022-12-31T16:19:42.776Z,12.23
2022-12-31T16:22:16.348Z,12.30
2022-12-31T16:25:19.512Z,12.31
2022-12-31T16:27:30.597Z,12.31
2022-12-31T16:29:58.759Z,12.32
2022-12-31T16:32:25.364Z,12.26
2022-12-31T16:34:54.851Z,12.26
2022-12-31T16:37:23.579Z,12.22
2022-12-31T16:39:56.090Z,12.16
2022-12-31T16:42:24.892Z,12.17
2022-12-31T16:44:53.327Z,12.19
2022-12-31T16:47:34.126Z,12.11
2022-12-31T16:50:19.957Z,12.11
2022-12-31T16:52:50.573Z,12.09
2022-12-31T16:55:21.170Z,12.05
2022-12-31T16:57:55.792Z,12.05
2022-12-31T17:00:24.789Z,12.06
2022-12-31T17:03:09.008Z,12.06
2022-12-31T17:05:55.081Z,11.98
2022-12-31T17:08:28.229Z,11.93
2022-12-31T17:10:56.553Z,11.94
2022-12-31T17:13:30.093Z,11.91
2022-12-31T17:15:57.958Z,11.91
2022-12-31T17:18:36.233Z,11.97
2022-12-31T17:21:08.891Z,11.97
2022-12-31T17:23:37.446Z,12.02
2022-12-31T17:26:13.330Z,11.95
2022-12-31T17:28:44.797Z,11.93
2022-12-31T17:31:32.977Z,11.95
2022-12-31T17:34:14.510Z,12.05
2022-12-31T17:36:54.450Z,11.99
2022-12-31T17:39:23.645Z,12.12
2022-12-31T17:41:52.734Z,12.19
2022-12-31T17:44:22.956Z,12.13
2022-12-31T17:46:53.177Z,12.21
2022-12-31T17:49:27.211Z,12.26
2022-12-31T17:51:53.860Z,12.27
2022-12-31T17:54:20.467Z,12.35
2022-12-31T17:56:47.496Z,12.35
2022-12-31T17:59:17.988Z,12.28
2022-12-31T18:01:45.384Z,12.31
2022-12-31T18:04:13.787Z,12.34
2022-12-31T18:06:40.865Z,12.34
2022-12-31T18:09:07.932Z,12.39
2022-12-31T18:11:36.362Z,12.35
2022-12-31T18:14:03.086Z,12.36
2022-12-31T18:16:30.097Z,12.42
2022-12-31T18:18:59.111Z,12.45
2022-12-31T18:21:29.816Z,12.42
2022-12-31T18:26:24.252Z,12.56
2022-12-31T18:28:51.649Z,12.60
2022-12-31T18:31:27.161Z,12.56
2022-12-31T18:33:55.928Z,12.64
2022-12-31T18:36:24.426Z,12.70
2022-12-31T18:38:51.365Z,12.74
2022-12-31T18:41:28.647Z,12.83
2022-12-31T18:43:55.385Z,12.89
2022-12-31T18:46:24.263Z,12.88
2022-12-31T18:48:50.884Z,12.96
2022-12-31T18:51:29.270Z,12.89
2022-12-31T18:53:58.381Z,12.96
2022-12-31T18:56:25.311Z,12.97
2022-12-31T18:58:52.170Z,13.01
2022-12-31T19:01:29.067Z,13.09
2022-12-31T19:03:58.372Z,13.12
2022-12-31T19:06:25.423Z,13.09
2022-12-31T19:08:52.115Z,13.12
2022-12-31T19:11:18.923Z,13.13
2022-12-31T19:13:45.954Z,13.15
2022-12-31T19:16:14.121Z,13.17
2022-12-31T19:18:41.721Z,13.24
2022-12-31T19:21:15.715Z,13.16
2022-12-31T19:23:42.200Z,13.09
2022-12-31T19:26:14.097Z,13.04
2022-12-31T19:28:40.823Z,13.05
2022-12-31T19:31:07.345Z,13.03
2022-12-31T19:33:33.984Z,12.98
2022-12-31T19:36:00.535Z,12.90
2022-12-31T19:38:29.095Z,12.90
2022-12-31T19:40:55.891Z,12.90
2022-12-31T19:43:23.857Z,12.89
2022-12-31T19:45:51.620Z,12.88
2022-12-31T19:48:20.882Z,12.83
2022-12-31T19:50:50.205Z,12.79
2022-12-31T19:53:21.374Z,12.77
2022-12-31T19:55:48.085Z,12.81
2022-12-31T19:58:28.176Z,12.79
2022-12-31T20:01:02.038Z,12.73
2022-12-31T20:03:31.265Z,12.70
2022-12-31T20:06:07.163Z,12.65
2022-12-31T20:08:34.956Z,12.61
2022-12-31T20:11:09.403Z,12.61
2022-12-31T20:13:37.495Z,12.57
2022-12-31T20:16:07.493Z,12.56
2022-12-31T20:18:35.827Z,12.61
2022-12-31T20:21:02.415Z,12.61
2022-12-31T20:23:28.919Z,12.58
2022-12-31T20:25:59.731Z,12.52
2022-12-31T20:28:26.843Z,12.50
2022-12-31T20:30:53.607Z,12.53
2022-12-31T20:33:20.221Z,12.50
2022-12-31T20:35:46.827Z,12.43
2022-12-31T20:38:13.413Z,12.45
2022-12-31T20:40:46.189Z,12.40
2022-12-31T20:43:13.183Z,12.43
2022-12-31T20:45:41.340Z,12.40
2022-12-31T20:48:08.272Z,12.46
2022-12-31T20:50:34.847Z,12.43
2022-12-31T20:53:02.070Z,12.41
2022-12-31T20:55:30.780Z,12.35
2022-12-31T20:57:57.366Z,12.38
2022-12-31T21:00:23.956Z,12.34
2022-12-31T21:03:00.338Z,12.34
2022-12-31T21:05:31.254Z,12.43
2022-12-31T21:07:57.898Z,12.42
2022-12-31T21:10:24.403Z,12.48
2022-12-31T21:12:53.539Z,12.46
2022-12-31T21:15:21.685Z,12.45
2022-12-31T21:17:48.325Z,12.42
2022-12-31T21:20:14.828Z,12.43
2022-12-31T21:22:41.396Z,12.43
2022-12-31T21:25:08.256Z,12.46
2022-12-31T21:27:35.592Z,12.39
2022-12-31T21:30:18.195Z,12.37
2022-12-31T21:32:45.557Z,12.33
2022-12-31T21:35:42.196Z,12.35
2022-12-31T21:38:02.561Z,12.35
2022-12-31T21:40:29.986Z,12.36
2022-12-31T21:42:56.931Z,12.33
2022-12-31T21:45:23.886Z,12.29
2022-12-31T21:48:09.081Z,12.24
2022-12-31T21:50:35.720Z,12.29
2022-12-31T21:53:02.362Z,12.32
2022-12-31T21:55:47.698Z,12.28
2022-12-31T21:58:25.996Z,12.26
2022-12-31T22:01:12.765Z,12.23
2022-12-31T22:03:39.660Z,12.28
2022-12-31T22:06:16.235Z,12.26
2022-12-31T22:08:44.657Z,12.24
2022-12-31T22:11:12.786Z,12.16
2022-12-31T22:13:40.112Z,12.21
2022-12-31T22:16:07.387Z,12.19
2022-12-31T22:18:38.832Z,12.13
2022-12-31T22:21:18.999Z,12.18
2022-12-31T22:23:48.586Z,12.23
2022-12-31T22:26:17.692Z,12.23
2022-12-31T22:28:45.903Z,12.27
2022-12-31T22:31:17.782Z,12.25
2022-12-31T22:33:44.692Z,12.29
2022-12-31T22:36:17.243Z,12.27
2022-12-31T22:38:44.227Z,12.25
2022-12-31T22:41:17.069Z,12.24
2022-12-31T22:43:46.188Z,12.27
2022-12-31T22:46:24.504Z,12.32
2022-12-31T22:48:52.877Z,12.31
2022-12-31T22:51:20.263Z,12.29
2022-12-31T22:53:47.198Z,12.28
2022-12-31T22:56:16.918Z,12.32
2022-12-31T22:58:44.113Z,12.33
2022-12-31T23:01:22.875Z,12.34
2022-12-31T23:03:51.341Z,12.38
2022-12-31T23:06:18.847Z,12.41
2022-12-31T23:09:04.388Z,12.39
2022-12-31T23:11:31.819Z,12.37
2022-12-31T23:14:17.115Z,12.38
2022-12-31T23:17:29.234Z,12.43
2022-12-31T23:20:08.544Z,12.49
2022-12-31T23:22:56.549Z,12.48
2022-12-31T23:25:23.212Z,12.40
2022-12-31T23:27:49.699Z,12.35
2022-12-31T23:30:16.267Z,12.32
2022-12-31T23:32:42.833Z,12.40
2022-12-31T23:35:10.258Z,12.35
2022-12-31T23:37:37.003Z,12.34
2022-12-31T23:40:04.153Z,12.28
2022-12-31T23:42:30.636Z,12.31
2022-12-31T23:44:57.138Z,12.35
2022-12-31T23:47:23.807Z,12.35
2022-12-31T23:49:50.326Z,12.35
2022-12-31T23:52:16.861Z,12.37
2022-12-31T23:54:43.469Z,12.43
2022-12-31T23:57:10.606Z,12.44
2022-12-31T23:59:37.086Z,12.29
